This is the latest recevied weather packets stored in our database for station/object W8CEN. If no packets are shown the sender has not sent any weather packets the latest 10 day(s).
| Time | Temp. | Humidity | Pressure | Rain* | Wind** | Luminosity | Snow |
|---|---|---|---|---|---|---|---|
| 1777564872 | 12.22° C | 58% | 994.1 hPa | 0 mm | - | 240 W/m² | - |
| 1777564567 | 12.22° C | 56% | 994.1 hPa | 0 mm | - | 720 W/m² | - |
| 1777564263 | 12.78° C | 56% | 994.1 hPa | 0 mm | - | 167 W/m² | - |
| 1777563960 | 12.78° C | 57% | 994.1 hPa | 0 mm | - | 235 W/m² | - |
| 1777563656 | 13.33° C | 55% | 993.8 hPa | 0 mm | - | 211 W/m² | - |
| 1777563356 | 12.78° C | 56% | 994 hPa | 0 mm | - | 257 W/m² | - |
| 1777563052 | 12.78° C | 55% | 994 hPa | 0 mm | - | 308 W/m² | - |
| 1777562748 | 12.78° C | 55% | 994.1 hPa | 0 mm | - | 418 W/m² | - |
| 1777562447 | 12.78° C | 57% | 994 hPa | 0 mm | - | 531 W/m² | - |
| 1777562144 | 12.78° C | 60% | 994 hPa | 0 mm | - | 390 W/m² | - |
| 1777561841 | 12.22° C | 62% | 994.1 hPa | 0 mm | - | 520 W/m² | - |
| 1777561538 | 11.67° C | 62% | 993.8 hPa | 0 mm | - | 375 W/m² | - |
| 1777561233 | 11.67° C | 63% | 994 hPa | 0 mm | - | 380 W/m² | - |
| 1777560932 | 11.11° C | 64% | 994 hPa | 0 mm | - | 517 W/m² | - |
| 1777560630 | 10.56° C | 68% | 993.9 hPa | 0 mm | - | 398 W/m² | - |
| 1777560327 | 10° C | 72% | 993.7 hPa | 0 mm | - | 399 W/m² | - |
| 1777560025 | 10° C | 73% | 993.9 hPa | 0 mm | - | 386 W/m² | - |
| 1777559720 | 9.44° C | 74% | 993.8 hPa | 0 mm | - | 338 W/m² | - |
| 1777559418 | 9.44° C | 73% | 993.9 hPa | 0 mm | - | 253 W/m² | - |
| 1777559115 | 9.44° C | 75% | 994.1 hPa | 0 mm | - | 241 W/m² | - |
| 1777558809 | 8.89° C | 78% | 993.5 hPa | 0 mm | - | 228 W/m² | - |
| 1777558505 | 8.89° C | 76% | 993.7 hPa | 0 mm | - | 203 W/m² | - |
| 1777558202 | 8.89° C | 77% | 993.6 hPa | 0 mm | - | 217 W/m² | - |
| 1777557898 | 8.89° C | 76% | 993.5 hPa | 0 mm | - | 158 W/m² | - |
| 1777557595 | 8.89° C | 77% | 993.6 hPa | 0 mm | - | 122 W/m² | - |
* Rain latest hour (hover to see other rain measurements)
** Current wind speed in m/s (hover to see current wind gust speed)